Sovereign — MNNU8 — position and weather

sailwx.info

Track history (hours):
 
Tides and Currents Weather Stations Pressure Air Temp Water Temp Dewpoint Dewpoint Depression Visibility Wind Speed Wind Dir Waves Ship Positions

Sovereign

Last reported at 2018-Jun-23 07:28 UTC. Time now 2018-Jun-23 07:39 UTC.
Position N 50°34' W 002°26'.

Length 131 m; draft 6.6 m.

Type: Other ship. MMSI: 232892000.

Date/timePositionNaut miles runAvg speedWind from/ knotsBaromVisibWave heightAir tempDewpointWater temp
2018-Jun-23 07:28N 50°34' W 002°26'0 0.0
2018-Jun-22 18:40N 50°34' W 002°26'0 0.0
2018-Jun-22 18:16N 50°34' W 002°26'0 0.0
2018-Jun-22 17:58N 50°34' W 002°26'0 0.0
2018-Jun-22 17:25N 50°34' W 002°26'0 0.0
2018-Jun-22 16:58N 50°34' W 002°26'0 0.0
2018-Jun-22 13:46N 50°34' W 002°26'0 0.0
2018-Jun-22 13:19N 50°34' W 002°26'0 0.0
2018-Jun-22 12:58N 50°34' W 002°26'0 0.0
2018-Jun-22 12:28N 50°34' W 002°26'0 0.0
2018-Jun-22 11:58N 50°34' W 002°26'0 0.0
2018-Jun-22 11:28N 50°34' W 002°26'0 0.0
2018-Jun-22 10:58N 50°34' W 002°26'0 0.0
2018-Jun-22 10:28N 50°34' W 002°26'0 0.0
2018-Jun-22 09:58N 50°34' W 002°26'0 0.0
2018-Jun-22 09:28N 50°34' W 002°26'0 0.0
2018-Jun-21 16:40N 50°34' W 002°26'0 0.1
2018-Jun-21 16:28N 50°34' W 002°26'0 0.0
2018-Jun-21 15:58N 50°34' W 002°26'0 0.0
2018-Jun-21 15:28N 50°34' W 002°26'0 0.0
2018-Jun-21 14:58N 50°34' W 002°26'0 0.0
2018-Jun-21 14:25N 50°34' W 002°26'  
2018-Jun-16 11:47N 50°34' W 002°26'1 1.8
2018-Jun-16 11:29N 50°35' W 002°26'0 0.0
2018-Jun-16 11:00N 50°35' W 002°26'0 0.0
2018-Jun-16 10:30N 50°35' W 002°26'3 3.1
2018-Jun-16 09:23N 50°34' W 002°20'13 9.7
2018-Jun-16 08:04N 50°29' W 002°02'1 9.8
2018-Jun-16 08:00N 50°29' W 002°01'510.2
2018-Jun-16 07:30N 50°28' W 001°53'8313.5
2018-Jun-16 01:21N 50°32' E 000°17'412.4
2018-Jun-16 01:00N 50°33' E 000°23'611.8
2018-Jun-16 00:30N 50°35' E 000°32'611.1
2018-Jun-16 00:00N 50°37' E 000°40'511.1
2018-Jun-15 23:31N 50°40' E 000°47'610.8
2018-Jun-15 22:59N 50°44' E 000°54'511.0
2018-Jun-15 22:30N 50°47' E 001°01'611.7
2018-Jun-15 22:00N 50°50' E 001°09'612.7
2018-Jun-15 21:30N 50°54' E 001°16'714.4
2018-Jun-15 21:00N 50°59' E 001°25'815.3
2018-Jun-15 20:31N 51°04' E 001°34'815.3
2018-Jun-15 20:01N 51°10' E 001°42'714.4
2018-Jun-15 19:30N 51°16' E 001°49'713.5
2018-Jun-15 19:00N 51°22' E 001°54'612.7
2018-Jun-15 18:30N 51°27' E 001°59'612.1
2018-Jun-15 18:00N 51°32' E 002°05'611.7
2018-Jun-15 17:30N 51°36' E 002°11'611.4
2018-Jun-15 17:00N 51°41' E 002°17'611.0
2018-Jun-15 16:30N 51°45' E 002°22'510.7
2018-Jun-15 16:00N 51°50' E 002°28'510.5
2018-Jun-15 15:30N 51°55' E 002°29'510.2
2018-Jun-15 14:59N 51°60' E 002°26'511.0
2018-Jun-15 14:30N 52°04' E 002°21'611.5
2018-Jun-15 14:00N 52°08' E 002°14'611.6
2018-Jun-15 13:30N 52°11' E 002°06'20 8.5
2018-Jun-15 11:07N 52°31' E 001°59'1 9.1
2018-Jun-15 11:00N 52°32' E 002°00'5 9.2
2018-Jun-15 10:30N 52°35' E 002°06'5 9.7
2018-Jun-15 10:00N 52°37' E 002°13'610.1
2018-Jun-15 09:27N 52°40' E 002°20'1213.3
2018-Jun-15 08:31N 52°51' E 002°30'95157.5
2018-Jun-14 16:00N 68°42' E 003°00'   130 / 261007.4 2.2 14.014.014.0
Track history (hours):
 
Tides and Currents Weather Stations Pressure Air Temp Water Temp Dewpoint Dewpoint Depression Visibility Wind Speed Wind Dir Waves Ship Positions

Sovereign

Last reported at 2018-Jun-23 07:28 UTC. Time now 2018-Jun-23 07:39 UTC.
Position N 50°34' W 002°26'.

Length 131 m; draft 6.6 m.

Type: Other ship. MMSI: 232892000.

Date/timePositionNaut miles runAvg speedWind from/ knotsBaromVisibWave heightAir tempDewpointWater temp
2018-Jun-23 07:28N 50°34' W 002°26'0 0.0
2018-Jun-22 18:40N 50°34' W 002°26'0 0.0
2018-Jun-22 18:16N 50°34' W 002°26'0 0.0
2018-Jun-22 17:58N 50°34' W 002°26'0 0.0
2018-Jun-22 17:25N 50°34' W 002°26'0 0.0
2018-Jun-22 16:58N 50°34' W 002°26'0 0.0
2018-Jun-22 13:46N 50°34' W 002°26'0 0.0
2018-Jun-22 13:19N 50°34' W 002°26'0 0.0
2018-Jun-22 12:58N 50°34' W 002°26'0 0.0
2018-Jun-22 12:28N 50°34' W 002°26'0 0.0
2018-Jun-22 11:58N 50°34' W 002°26'0 0.0
2018-Jun-22 11:28N 50°34' W 002°26'0 0.0
2018-Jun-22 10:58N 50°34' W 002°26'0 0.0
2018-Jun-22 10:28N 50°34' W 002°26'0 0.0
2018-Jun-22 09:58N 50°34' W 002°26'0 0.0
2018-Jun-22 09:28N 50°34' W 002°26'0 0.0
2018-Jun-21 16:40N 50°34' W 002°26'0 0.1
2018-Jun-21 16:28N 50°34' W 002°26'0 0.0
2018-Jun-21 15:58N 50°34' W 002°26'0 0.0
2018-Jun-21 15:28N 50°34' W 002°26'0 0.0
2018-Jun-21 14:58N 50°34' W 002°26'0 0.0
2018-Jun-21 14:25N 50°34' W 002°26'  
2018-Jun-16 11:47N 50°34' W 002°26'1 1.8
2018-Jun-16 11:29N 50°35' W 002°26'0 0.0
2018-Jun-16 11:00N 50°35' W 002°26'0 0.0
2018-Jun-16 10:30N 50°35' W 002°26'3 3.1
2018-Jun-16 09:23N 50°34' W 002°20'13 9.7
2018-Jun-16 08:04N 50°29' W 002°02'1 9.8
2018-Jun-16 08:00N 50°29' W 002°01'510.2
2018-Jun-16 07:30N 50°28' W 001°53'8313.5
2018-Jun-16 01:21N 50°32' E 000°17'412.4
2018-Jun-16 01:00N 50°33' E 000°23'611.8
2018-Jun-16 00:30N 50°35' E 000°32'611.1
2018-Jun-16 00:00N 50°37' E 000°40'511.1
2018-Jun-15 23:31N 50°40' E 000°47'610.8
2018-Jun-15 22:59N 50°44' E 000°54'511.0
2018-Jun-15 22:30N 50°47' E 001°01'611.7
2018-Jun-15 22:00N 50°50' E 001°09'612.7
2018-Jun-15 21:30N 50°54' E 001°16'714.4
2018-Jun-15 21:00N 50°59' E 001°25'815.3
2018-Jun-15 20:31N 51°04' E 001°34'815.3
2018-Jun-15 20:01N 51°10' E 001°42'714.4
2018-Jun-15 19:30N 51°16' E 001°49'713.5
2018-Jun-15 19:00N 51°22' E 001°54'612.7
2018-Jun-15 18:30N 51°27' E 001°59'612.1
2018-Jun-15 18:00N 51°32' E 002°05'611.7
2018-Jun-15 17:30N 51°36' E 002°11'611.4
2018-Jun-15 17:00N 51°41' E 002°17'611.0
2018-Jun-15 16:30N 51°45' E 002°22'510.7
2018-Jun-15 16:00N 51°50' E 002°28'510.5
2018-Jun-15 15:30N 51°55' E 002°29'510.2
2018-Jun-15 14:59N 51°60' E 002°26'511.0
2018-Jun-15 14:30N 52°04' E 002°21'611.5
2018-Jun-15 14:00N 52°08' E 002°14'611.6
2018-Jun-15 13:30N 52°11' E 002°06'20 8.5
2018-Jun-15 11:07N 52°31' E 001°59'1 9.1
2018-Jun-15 11:00N 52°32' E 002°00'5 9.2
2018-Jun-15 10:30N 52°35' E 002°06'5 9.7
2018-Jun-15 10:00N 52°37' E 002°13'610.1
2018-Jun-15 09:27N 52°40' E 002°20'1213.3
2018-Jun-15 08:31N 52°51' E 002°30'95157.5
2018-Jun-14 16:00N 68°42' E 003°00'   130 / 261007.4 2.2 14.014.014.0

Dump ship's entire track history